Blackbird, Delaware
Current Conditions -  °F | °C
As of 10:58 AM on Wednesday 28 Jan 2015 (Local Time) from KDOV Reporting Station
Clear Clear  
Wind Chill: 16°   Ceiling: Unl
Heat Index: 29°   Visibility: 10mi
Dew Point:   Wind: 18mph
Humidity: 40%   Direction: 300°WNW
Pressure: 30.16"   Gusts: NA
Location:  39.3861°N, 75.6559°W
Report Text: KDOV 281558Z AUTO 30016KT 10SM CLR M02/M14 A3016 RMK AO2 SLP217 T10181140 VISNO RWY19 CHINO RWY19 $
Loading
Personal Weather Stations






























Interactive Weather Map New forecast layout! Learn more

10-Day Weather Forecast

Advertisements
Track Severe Weather on mobile